Sunday, April 22, 2018, 5:58 PM EDT
Back to Local

KPSF, Pittsfield Municipal Airport

Location: Pittsfield, MA, United States Lat: 42.433
Local Time: 5:58 PM EDT (21:58 GMT) Lon: -73.283
Time Zone: US/Eastern Elev: 1194 ft

Show me the last for .
Show Coded

Time T Td Feel RH Dir Speed Gust Alt SLP Vis Weather Sky Remarks
2018-04-22 16:54 59 13 - 16 340° 9 16 30.30 30.29 10 CLR None
2018-04-22 15:54 58 14 - 17 300° 10 25 30.30 30.30 10 CLR None
2018-04-22 14:54 58 13 - 16 280° 16 21 30.31 30.30 10 CLR None
2018-04-22 13:54 57 12 - 16 310° 14 24 30.33 30.32 10 CLR 6-hr Min Temp (2pm): 35.1°F
6-hr Max Temp (2pm): 57.0°F
2018-04-22 12:54 56 13 - 17 280° 15 - 30.34 30.33 10 CLR None
2018-04-22 11:54 54 12 - 18 280° 15 23 30.36 30.35 10 CLR None
2018-04-22 10:54 52 13 - 20 310° 9 18 30.36 30.35 10 CLR None
2018-04-22 09:54 48 17 44 28 310° 8 - 30.37 30.36 10 CLR None
2018-04-22 08:54 44 23 - 42 - Calm - 30.36 30.35 10 CLR None
2018-04-22 07:54 35 24 - 63 - Calm - 30.35 30.35 10 CLR 6-hr Min Temp (8am): 27.0°F
6-hr Max Temp (8am): 37.9°F
2018-04-22 06:54 30 22 - 71 - Calm - 30.35 30.35 10 CLR None
2018-04-22 05:54 28 22 - 77 - Calm - 30.34 30.34 10 CLR None
2018-04-22 04:54 29 20 - 68 - Calm - 30.33 30.33 10 CLR None
2018-04-22 03:54 29 20 - 68 - Calm - 30.33 30.33 10 CLR None
2018-04-22 02:54 35 20 32 53 240° 3 - 30.33 30.32 10 CLR None
2018-04-22 01:54 35 19 32 51 220° 3 - 30.32 30.32 10 CLR 6-hr Min Temp (2am): 35.1°F
6-hr Max Temp (2am): 48.0°F
2018-04-22 00:54 39 19 35 44 240° 6 - 30.33 30.32 10 CLR 24-hr Min Temp (1am): 28.9°F
24-hr Max Temp (1am): 55.0°F
2018-04-21 23:54 39 19 33 44 260° 9 - 30.32 30.31 10 CLR None
2018-04-21 22:54 40 18 34 40 270° 8 - 30.31 30.31 10 CLR None
2018-04-21 21:54 43 17 37 34 280° 12 - 30.30 30.29 10 CLR None
2018-04-21 20:54 46 17 40 30 280° 14 - 30.28 30.28 10 CLR None
2018-04-21 19:54 48 16 41 27 280° 13 20 30.26 30.26 10 CLR 6-hr Min Temp (8pm): 48.0°F
6-hr Max Temp (8pm): 55.0°F
2018-04-21 18:54 51 15 - 23 290° 16 22 30.23 30.23 10 CLR None

Support USWX by starting your Amazon purchase here.